Météo Nord-Pas-de-Calais   La météo au plus près de chez vous

Station météorologique

Observations météo à Rocroi (08367)

08367002 382 m Dernier relevé à 17:00
20.6°C
Humidité 49 % Vent 9.4 km/h

Journée consultée

Samedi 5 Septembre 2026

Synthèse de la journée

Périodes de référence en UTC

Température maximale

20.6°C

à 15:54

06h 06h

Température minimale

11.5°C

à 08:00

18h 18h

Rafale maximale

21 km/h

à 16:30

00h 00h

Précipitations

0 mm

Cumul quotidien

06h 06h

Graphiques de la journée

Heure locale Réduire

Données détaillées

Relevés météo

Pas de 6 minutes Afficher les relevés infra-horaires
Relevés météo détaillés à Rocroi pour le Samedi 5 Septembre 2026
Heure Température °C Point de rosée °C Humidité % Vent moyen (raf.), km/h Précipitations mm
17:00 20.6 °C 8.9 °C 47 % 10 km/h (19 km/h) 0 mm0 mm
16:54 20.4 °C 8.7 °C 47 % 11 km/h (20 km/h) 0 mm0 mm
16:48 20.6 °C 9.2 °C 48 % 10 km/h (20 km/h) 0 mm0 mm
16:42 20.6 °C 9.2 °C 48 % 10 km/h (21 km/h) 0 mm0 mm
16:36 20.6 °C 9.2 °C 48 % 10 km/h (21 km/h) 0 mm0 mm
16:30 20.3 °C 9.2 °C 49 % 12 km/h (21 km/h) 0 mm0 mm
16:24 20.6 °C 9.5 °C 49 % 10 km/h (18 km/h) 0 mm0 mm
16:18 20.6 °C 9.8 °C 50 % 9 km/h (17 km/h) 0 mm0 mm
16:12 20.6 °C 9.8 °C 50 % 10 km/h (19 km/h) 0 mm0 mm
16:06 20.5 °C 9.4 °C 49 % 9 km/h (19 km/h) 0 mm0 mm
16:00 20.4 °C 9.3 °C 49 % 9 km/h (19 km/h) 0 mm0 mm
15:54 20.6 °C 9.8 °C 50 % 8 km/h (19 km/h) 0 mm0 mm
15:48 20.5 °C 9.7 °C 50 % 7 km/h (15 km/h) 0 mm0 mm
15:42 20.3 °C 9.2 °C 49 % 8 km/h (16 km/h) 0 mm0 mm
15:36 20.1 °C 8.7 °C 48 % 9 km/h (19 km/h) 0 mm0 mm
15:30 20.4 °C 9.9 °C 51 % 8 km/h (19 km/h) 0 mm0 mm
15:24 20.1 °C 10.2 °C 53 % 8 km/h (19 km/h) 0 mm0 mm
15:18 20 °C 9.5 °C 51 % 9 km/h (17 km/h) 0 mm0 mm
15:12 20 °C 10.4 °C 54 % 10 km/h (18 km/h) 0 mm0 mm
15:06 19.7 °C 9.3 °C 51 % 9 km/h (18 km/h) 0 mm0 mm
15:00 19.5 °C 9.1 °C 51 % 8 km/h (18 km/h) 0 mm0 mm
14:54 19.3 °C 9.5 °C 53 % 7 km/h (18 km/h) 0 mm0 mm
14:48 19.3 °C 9.5 °C 53 % 6 km/h (15 km/h) 0 mm0 mm
14:42 19.4 °C 9.8 °C 54 % 8 km/h (18 km/h) 0 mm0 mm
14:36 19.2 °C 9.7 °C 54 % 9 km/h (19 km/h) 0 mm0 mm
14:30 19.3 °C 10.8 °C 58 % 10 km/h (19 km/h) 0 mm0 mm
14:24 18.7 °C 10 °C 57 % 8 km/h (18 km/h) 0 mm0 mm
14:18 18.2 °C 9.5 °C 57 % 7 km/h (17 km/h) 0 mm0 mm
14:12 18.3 °C 9.6 °C 57 % 6 km/h (17 km/h) 0 mm0 mm
14:06 18.6 °C 9.6 °C 56 % 8 km/h (18 km/h) 0 mm0 mm
14:00 18.7 °C 10.3 °C 58 % 10 km/h (19 km/h) 0 mm0 mm
13:54 18.4 °C 9.7 °C 57 % 9 km/h (19 km/h) 0 mm0 mm
13:48 17.7 °C 9.3 °C 58 % 8 km/h (16 km/h) 0 mm0 mm
13:42 17.9 °C 9.3 °C 57 % 8 km/h (16 km/h) 0 mm0 mm
13:36 17.9 °C 9.3 °C 57 % 8 km/h (15 km/h) 0 mm0 mm
13:30 18.7 °C 10.3 °C 58 % 8 km/h (15 km/h) 0 mm0 mm
13:24 18.4 °C 10.2 °C 59 % 7 km/h (17 km/h) 0 mm0 mm
13:18 17.8 °C 9.2 °C 57 % 7 km/h (18 km/h) 0 mm0 mm
13:12 18.7 °C 11.3 °C 62 % 9 km/h (16 km/h) 0 mm0 mm
13:06 17.7 °C 10.1 °C 61 % 10 km/h (18 km/h) 0 mm0 mm
13:00 18.2 °C 9.8 °C 58 % 11 km/h (21 km/h) 0 mm0 mm
12:54 18.1 °C 10.7 °C 62 % 9 km/h (18 km/h) 0 mm0 mm
12:48 17.9 °C 10 °C 60 % 9 km/h (20 km/h) 0 mm0 mm
12:42 17.5 °C 9.6 °C 60 % 9 km/h (20 km/h) 0 mm0 mm
12:36 16.8 °C 9.5 °C 62 % 8 km/h (16 km/h) 0 mm0 mm
12:30 17.3 °C 10.4 °C 64 % 8 km/h (17 km/h) 0 mm0 mm
12:24 17.2 °C 9.9 °C 62 % 9 km/h (19 km/h) 0 mm0 mm
12:18 17.3 °C 10.4 °C 64 % 9 km/h (19 km/h) 0 mm0 mm
12:12 17.2 °C 10.6 °C 65 % 9 km/h (15 km/h) 0 mm0 mm
12:06 17.2 °C 10.8 °C 66 % 9 km/h (15 km/h) 0 mm0 mm
12:00 17.1 °C 11.1 °C 68 % 8 km/h (17 km/h) 0 mm0 mm
11:54 16.8 °C 10.9 °C 68 % 9 km/h (17 km/h) 0 mm0 mm
11:48 16.4 °C 10.3 °C 67 % 9 km/h (19 km/h) 0 mm0 mm
11:42 16.5 °C 10.8 °C 69 % 8 km/h (16 km/h) 0 mm0 mm
11:36 16.1 °C 10.4 °C 69 % 9 km/h (19 km/h) 0 mm0 mm
11:30 15.9 °C 10.2 °C 69 % 8 km/h (20 km/h) 0 mm0 mm
11:24 16.2 °C 10.3 °C 68 % 9 km/h (20 km/h) 0 mm0 mm
11:18 16.5 °C 11 °C 70 % 8 km/h (15 km/h) 0 mm0 mm
11:12 16.5 °C 11.2 °C 71 % 9 km/h (20 km/h) 0 mm0 mm
11:06 16 °C 11 °C 72 % 10 km/h (20 km/h) 0 mm0 mm
11:00 16 °C 11.6 °C 75 % 9 km/h (17 km/h) 0 mm0 mm
10:54 15.5 °C 10.5 °C 72 % 8 km/h (17 km/h) 0 mm0 mm
10:48 15.2 °C 11.2 °C 77 % 8 km/h (16 km/h) 0 mm0 mm
10:42 15.1 °C 10.9 °C 76 % 8 km/h (16 km/h) 0 mm0 mm
10:36 14.9 °C 11.1 °C 78 % 8 km/h (15 km/h) 0 mm0 mm
10:30 15.3 °C 11.5 °C 78 % 8 km/h (15 km/h) 0 mm0 mm
10:24 14.8 °C 11.2 °C 79 % 8 km/h (15 km/h) 0 mm0 mm
10:18 14.8 °C 11.6 °C 81 % 8 km/h (18 km/h) 0 mm0 mm
10:12 14.7 °C 11.5 °C 81 % 10 km/h (19 km/h) 0 mm0 mm
10:06 14.7 °C 11.7 °C 82 % 8 km/h (19 km/h) 0 mm0 mm
10:00 14.5 °C 12.2 °C 86 % 8 km/h (16 km/h) 0 mm0 mm
09:54 14.3 °C 12.2 °C 87 % 9 km/h (17 km/h) 0 mm0 mm
09:48 14 °C 11.9 °C 87 % 9 km/h (18 km/h) 0 mm0 mm
09:42 14.1 °C 12.1 °C 88 % 8 km/h (18 km/h) 0 mm0 mm
09:36 14 °C 12.4 °C 90 % 10 km/h (19 km/h) 0 mm0 mm
09:30 13.8 °C 12.2 °C 90 % 10 km/h (18 km/h) 0 mm0 mm
09:24 13.6 °C 12.2 °C 91 % 9 km/h (18 km/h) 0 mm0 mm
09:18 13.4 °C 12.1 °C 92 % 9 km/h (17 km/h) 0 mm0 mm
09:12 13.3 °C 12.2 °C 93 % 8 km/h (17 km/h) 0 mm0 mm
09:06 13.1 °C 12.2 °C 94 % 7 km/h (18 km/h) 0 mm0 mm
09:00 12.9 °C 12 °C 94 % 8 km/h (18 km/h) 0 mm0 mm
08:54 12.7 °C 11.9 °C 95 % 8 km/h (17 km/h) 0 mm0 mm
08:48 12.5 °C 11.9 °C 96 % 7 km/h (14 km/h) 0 mm0 mm
08:42 12.4 °C 11.8 °C 96 % 7 km/h (15 km/h) 0 mm0 mm
08:36 12.2 °C 11.7 °C 97 % 7 km/h (15 km/h) 0 mm0 mm
08:30 12.1 °C 11.6 °C 97 % 6 km/h (13 km/h) 0 mm0 mm
08:24 12 °C 11.5 °C 97 % 5 km/h (12 km/h) 0 mm0 mm
08:18 11.9 °C 11.4 °C 97 % 6 km/h (12 km/h) 0 mm0 mm
08:12 11.8 °C 11.3 °C 97 % 6 km/h (13 km/h) 0 mm0 mm
08:06 11.8 °C 11.5 °C 98 % 6 km/h (12 km/h) 0 mm0 mm
08:00 11.7 °C 11.4 °C 98 % 6 km/h (12 km/h) 0 mm0 mm
07:54 11.6 °C 11.3 °C 98 % 6 km/h (12 km/h) 0 mm0 mm
07:48 11.6 °C 11.1 °C 97 % 5 km/h (10 km/h) 0 mm0 mm
07:42 11.6 °C 11.1 °C 97 % 5 km/h (11 km/h) 0 mm0 mm
07:36 11.6 °C 11.1 °C 97 % 5 km/h (10 km/h) 0 mm0 mm
07:30 11.6 °C 11.1 °C 97 % 5 km/h (10 km/h) 0 mm0 mm
07:24 11.6 °C 11.1 °C 97 % 6 km/h (10 km/h) 0 mm0 mm
07:18 11.6 °C 11.1 °C 97 % 6 km/h (11 km/h) 0 mm0 mm
07:12 11.7 °C 11.2 °C 97 % 6 km/h (11 km/h) 0 mm0 mm
07:06 11.8 °C 11.5 °C 98 % 6 km/h (12 km/h) 0 mm0 mm
07:00 11.7 °C 11.4 °C 98 % 7 km/h (12 km/h) 0 mm0.2 mm
06:54 11.8 °C 11.5 °C 98 % 7 km/h (12 km/h) 0 mm0 mm
06:48 11.8 °C 11.5 °C 98 % 6 km/h (12 km/h) 0 mm0 mm
06:42 11.8 °C 11.5 °C 98 % 6 km/h (10 km/h) 0 mm0 mm
06:36 11.9 °C 11.6 °C 98 % 6 km/h (11 km/h) 0 mm0 mm
06:30 11.9 °C 11.6 °C 98 % 6 km/h (12 km/h) 0 mm0 mm
06:24 11.9 °C 11.6 °C 98 % 6 km/h (12 km/h) 0 mm0 mm
06:18 12 °C 11.5 °C 97 % 6 km/h (11 km/h) 0.2 mm0 mm
06:12 12 °C 11.5 °C 97 % 6 km/h (12 km/h) 0 mm0 mm
06:06 12 °C 11.4 °C 96 % 7 km/h (11 km/h) 0 mm0 mm
06:00 12 °C 11.4 °C 96 % 7 km/h (12 km/h) 0 mm0 mm
05:54 12 °C 11.2 °C 95 % 6 km/h (11 km/h) 0 mm0 mm
05:48 12.1 °C 11.3 °C 95 % 5 km/h (11 km/h) 0 mm0 mm
05:42 12.2 °C 11.4 °C 95 % 5 km/h (10 km/h) 0 mm0 mm
05:36 12.3 °C 11.4 °C 94 % 5 km/h (10 km/h) 0 mm0 mm
05:30 12.4 °C 11.5 °C 94 % 6 km/h (11 km/h) 0 mm0 mm
05:24 12.5 °C 11.4 °C 93 % 6 km/h (11 km/h) 0 mm0 mm
05:18 12.7 °C 11.6 °C 93 % 6 km/h (12 km/h) 0 mm0 mm
05:12 12.8 °C 11.7 °C 93 % 6 km/h (13 km/h) 0 mm0 mm
05:06 12.9 °C 11.8 °C 93 % 7 km/h (15 km/h) 0 mm0 mm
05:00 13 °C 11.9 °C 93 % 8 km/h (15 km/h) 0 mm0 mm
04:54 13.1 °C 12 °C 93 % 6 km/h (13 km/h) 0 mm0 mm
04:48 13.2 °C 12.1 °C 93 % 6 km/h (12 km/h) 0 mm0 mm
04:42 13.3 °C 12.2 °C 93 % 6 km/h (12 km/h) 0 mm0 mm
04:36 13.4 °C 12.3 °C 93 % 7 km/h (15 km/h) 0 mm0 mm
04:30 13.6 °C 12.3 °C 92 % 7 km/h (15 km/h) 0 mm0 mm
04:24 13.7 °C 12.4 °C 92 % 7 km/h (15 km/h) 0 mm0 mm
04:18 13.9 °C 12.6 °C 92 % 8 km/h (17 km/h) 0 mm0 mm
04:12 14 °C 12.7 °C 92 % 9 km/h (17 km/h) 0 mm0 mm
04:06 14.2 °C 12.9 °C 92 % 8 km/h (17 km/h) 0 mm0 mm
04:00 14.3 °C 13 °C 92 % 8 km/h (17 km/h) 0 mm0 mm
03:54 14.4 °C 13.1 °C 92 % 9 km/h (18 km/h) 0 mm0 mm
03:48 14.4 °C 13.3 °C 93 % 9 km/h (18 km/h) 0 mm0 mm
03:42 14.5 °C 13.5 °C 94 % 8 km/h (18 km/h) 0 mm0 mm
03:36 14.5 °C 13.5 °C 94 % 8 km/h (15 km/h) 0 mm0 mm
03:30 14.5 °C 13.5 °C 94 % 8 km/h (16 km/h) 0 mm0 mm
03:24 14.5 °C 13.5 °C 94 % 8 km/h (16 km/h) 0 mm0 mm
03:18 14.6 °C 13.6 °C 94 % 8 km/h (16 km/h) 0 mm0 mm
03:12 14.7 °C 13.7 °C 94 % 8 km/h (17 km/h) 0 mm0 mm
03:06 14.8 °C 13.8 °C 94 % 8 km/h (17 km/h) 0 mm0 mm
03:00 14.9 °C 13.8 °C 93 % 6 km/h (13 km/h) 0 mm0 mm
02:54 15 °C 13.9 °C 93 % 8 km/h (19 km/h) 0 mm0 mm
02:48 15.1 °C 14.1 °C 94 % 9 km/h (19 km/h) 0 mm0 mm
02:42 15.2 °C 14.2 °C 94 % 9 km/h (18 km/h) 0 mm0 mm
02:36 15.3 °C 14.5 °C 95 % 7 km/h (15 km/h) 0 mm0 mm
02:30 15.3 °C 14.5 °C 95 % 6 km/h (15 km/h) 0 mm0 mm
02:24 15.3 °C 14.5 °C 95 % 6 km/h (14 km/h) 0 mm0 mm
02:18 15.3 °C 14.5 °C 95 % 8 km/h (15 km/h) 0 mm0 mm
02:12 15.3 °C 14.5 °C 95 % 8 km/h (20 km/h) 0 mm0 mm
02:06 15.4 °C 14.6 °C 95 % 8 km/h (14 km/h) 0 mm0 mm
02:00 15.4 °C 14.4 °C 94 % 8 km/h (15 km/h) 0 mm0 mm
01:54 15.4 °C 14.4 °C 94 % 9 km/h (16 km/h) 0 mm0 mm
01:48 15.5 °C 14.7 °C 95 % 9 km/h (16 km/h) 0 mm0 mm
01:42 15.6 °C 14.8 °C 95 % 8 km/h (15 km/h) 0 mm0 mm
01:36 15.6 °C 14.6 °C 94 % 8 km/h (17 km/h) 0 mm0 mm
01:30 15.6 °C 14.6 °C 94 % 9 km/h (16 km/h) 0 mm0 mm
01:24 15.7 °C 14.7 °C 94 % 8 km/h (19 km/h) 0 mm0 mm
01:18 15.7 °C 14.7 °C 94 % 9 km/h (21 km/h) 0 mm0 mm
01:12 15.8 °C 14.7 °C 93 % 10 km/h (21 km/h) 0 mm0 mm
01:06 15.8 °C 14.7 °C 93 % 9 km/h (19 km/h) 0 mm0 mm
01:00 15.8 °C 14.7 °C 93 % 9 km/h (19 km/h) 0 mm0 mm
00:54 15.8 °C 14.8 °C 94 % 10 km/h (19 km/h) 0 mm0 mm
00:48 15.7 °C 14.7 °C 94 % 9 km/h (19 km/h) 0 mm0 mm
00:42 15.8 °C 15 °C 95 % 10 km/h (19 km/h) 0 mm0 mm
00:36 15.8 °C 15 °C 95 % 10 km/h (22 km/h) 0 mm0 mm
00:30 15.8 °C 15 °C 95 % 9 km/h (17 km/h) 0 mm0 mm
00:24 15.8 °C 15 °C 95 % 9 km/h (19 km/h) 0 mm0 mm
00:18 15.8 °C 15 °C 95 % 10 km/h (19 km/h) 0 mm0 mm
00:12 15.8 °C 15 °C 95 % 10 km/h (22 km/h) 0 mm0 mm
00:06 15.8 °C 15 °C 95 % 10 km/h (22 km/h) 0 mm0 mm
00:00 15.8 °C 15 °C 95 % 9 km/h (20 km/h) 0 mm0 mm

Données via Météo-France

Relevés météo à Rocroi

Cette page rassemble les observations de la station de Rocroi : température, humidité, vent, précipitations et pression atmosphérique. Les graphiques facilitent le suivi de la journée, tandis que le tableau donne accès aux mesures horaires et infra-horaires disponibles.

Pour replacer ces mesures dans leur contexte, consultez la climatologie de Rocroi ainsi que ses normales et records. Retrouvez aussi la carte des observations météo en temps réel.